Aviation Digital Data Service (ADDS)

Output produced by TAFs form (1919 UTC 23 July 2017)
found at http://www.aviationweather.gov/adds/tafs/
 
METAR text: ZBAA 231900Z 01002MPS CAVOK 25/23 Q1003 NOSIG
Conditions at: ZBAA (BEIJING/PEKING , CN) observed 1900 UTC 23 July 2017
Temperature: 25.0°C (77°F)
Dewpoint: 23.0°C (73°F) [RH = 89%]
Pressure (altimeter): 29.62 inches Hg (1003.0 mb)
Winds: from the N (10 degrees) at 5 MPH (4 knots; 2.1 m/s)
Visibility: 6 or more miles (10+ km)
Ceiling: ceiling and visibility are OK
Clouds: unknown
Weather: no significant weather observed at this time

Forecast for: ZBAA (BEIJING/PEKING , CN)
Text: TAF ZBAA 231520Z 2318/2418 02004MPS 5000 BR NSC TX28/2407Z TN23/2321Z
Forecast period: 1800 UTC 23 July 2017 to 1800 UTC 24 July 2017
Forecast type: FROM: standard forecast or significant change
Winds: from the NNE (20 degrees) at 9 MPH (8 knots; 4.2 m/s)
Visibility: 3 miles (5 km)
Clouds: not forecast
Weather: BR  (mist)